createdAt,value
2023-04-02T10:48:29.539Z,94984.28
2023-04-02T10:51:34.344Z,94989.72
2023-04-02T10:54:18.920Z,94985.91
2023-04-02T10:56:51.137Z,94983.63
2023-04-02T10:59:27.155Z,94989.50
2023-04-02T11:01:57.347Z,94991.84
2023-04-02T11:04:31.655Z,94996.72
2023-04-02T11:07:19.924Z,94997.06
2023-04-02T11:09:52.078Z,95001.25
2023-04-02T11:12:25.691Z,94998.34
2023-04-02T11:14:54.300Z,95003.88
2023-04-02T11:17:21.480Z,95006.25
2023-04-02T11:19:48.290Z,95006.34
2023-04-02T11:22:20.039Z,95003.81
2023-04-02T11:24:54.689Z,94998.06
2023-04-02T11:27:30.796Z,95006.41
2023-04-02T11:30:15.825Z,95011.34
2023-04-02T11:32:45.327Z,95004.06
2023-04-02T11:35:30.729Z,95015.97
2023-04-02T11:38:12.556Z,95011.38
2023-04-02T11:40:58.500Z,95010.44
2023-04-02T11:43:34.491Z,95016.78
2023-04-02T11:46:04.394Z,95015.91
2023-04-02T11:48:36.413Z,95019.66
2023-04-02T11:51:32.380Z,94993.81
2023-04-02T11:53:59.110Z,95018.16
2023-04-02T11:56:46.261Z,95014.59
2023-04-02T11:59:38.371Z,95019.28
2023-04-02T12:02:10.815Z,95028.03
2023-04-02T12:04:43.742Z,95025.88
2023-04-02T12:07:36.636Z,95029.72
2023-04-02T12:10:16.478Z,95024.69
2023-04-02T12:12:43.642Z,95026.59
2023-04-02T12:15:48.862Z,95034.91
2023-04-02T12:18:22.813Z,95032.19
2023-04-02T12:20:57.250Z,95035.66
2023-04-02T12:23:31.263Z,95026.81
2023-04-02T12:26:03.927Z,95029.19
2023-04-02T12:28:33.801Z,95022.19
2023-04-02T12:31:09.615Z,95035.22
2023-04-02T12:33:38.117Z,95030.75
2023-04-02T12:36:19.289Z,95038.31
2023-04-02T12:38:58.497Z,95031.66
2023-04-02T12:41:30.199Z,95046.19
2023-04-02T12:44:02.057Z,95046.41
2023-04-02T12:46:31.259Z,95036.81
2023-04-02T12:49:37.078Z,95043.66
2023-04-02T12:52:13.220Z,95036.75
2023-04-02T12:54:50.143Z,95041.13
2023-04-02T12:57:31.598Z,95039.41
2023-04-02T13:00:00.222Z,95043.31
2023-04-02T13:02:29.473Z,95037.91
2023-04-02T13:05:01.641Z,95045.69
2023-04-02T13:07:33.625Z,95040.22
2023-04-02T13:10:02.858Z,95047.22
2023-04-02T13:12:41.595Z,95040.53
2023-04-02T13:15:22.807Z,95045.97
2023-04-02T13:18:23.107Z,95036.09
2023-04-02T13:21:00.178Z,95041.66
2023-04-02T13:23:29.668Z,95041.84
2023-04-02T13:25:58.557Z,95035.63
2023-04-02T13:28:28.994Z,95042.38
2023-04-02T13:30:55.667Z,95033.88
2023-04-02T13:33:22.499Z,95032.47
2023-04-02T13:35:49.271Z,95024.94
2023-04-02T13:38:15.873Z,95028.41
2023-04-02T13:40:42.524Z,95034.19
2023-04-02T13:43:16.947Z,95031.47
2023-04-02T13:45:47.427Z,95033.41
2023-04-02T13:48:16.018Z,95039.75
2023-04-02T13:50:42.779Z,95032.84
2023-04-02T13:53:40.541Z,95026.50
2023-04-02T13:56:08.434Z,95033.69
2023-04-02T13:58:34.982Z,95032.41
2023-04-02T14:01:01.984Z,95030.50
2023-04-02T14:03:29.595Z,95032.44
2023-04-02T14:06:28.397Z,95032.41
2023-04-02T14:08:54.893Z,95045.97
2023-04-02T14:11:30.464Z,95034.75
2023-04-02T14:14:03.023Z,95035.22
2023-04-02T14:16:35.646Z,95039.75
2023-04-02T14:19:39.002Z,95042.84
2023-04-02T14:22:08.464Z,95042.41
2023-04-02T14:24:53.702Z,95050.66
2023-04-02T14:27:40.467Z,95054.47
2023-04-02T14:30:07.143Z,95062.00
2023-04-02T14:32:50.348Z,95063.81
2023-04-02T14:35:26.876Z,95067.75
2023-04-02T14:38:05.717Z,95065.56
2023-04-02T14:40:42.202Z,95072.00
2023-04-02T14:43:21.373Z,95063.81
2023-04-02T14:45:58.572Z,95059.03
2023-04-02T14:48:42.281Z,95062.91
2023-04-02T14:51:21.375Z,95066.13
2023-04-02T14:53:51.577Z,95058.41
2023-04-02T14:56:23.641Z,95056.13
2023-04-02T14:59:03.570Z,95056.38
2023-04-02T15:01:43.426Z,95061.00
2023-04-02T15:04:30.954Z,95059.84
2023-04-02T15:07:04.905Z,95070.06
2023-04-02T15:09:45.087Z,95065.38
2023-04-02T15:12:23.907Z,95063.06
2023-04-02T15:15:33.019Z,95068.19
2023-04-02T15:18:11.254Z,95066.88
2023-04-02T15:21:16.660Z,95061.97
2023-04-02T15:23:59.059Z,95063.00
2023-04-02T15:26:51.314Z,95054.41
2023-04-02T15:29:36.452Z,95051.88
2023-04-02T15:32:32.352Z,95061.91
2023-04-02T15:35:14.692Z,95069.88
2023-04-02T15:38:22.709Z,95063.47
2023-04-02T15:41:32.324Z,95059.06
2023-04-02T15:44:17.175Z,95054.56
2023-04-02T15:47:03.172Z,95058.25
2023-04-02T15:49:50.985Z,95060.63
2023-04-02T15:52:52.753Z,95074.13
2023-04-02T15:55:26.644Z,95060.69
2023-04-02T15:58:30.971Z,95066.50
2023-04-02T16:01:25.874Z,95069.13
2023-04-02T16:04:11.638Z,95064.91
2023-04-02T16:06:56.799Z,95065.31
2023-04-02T16:09:34.606Z,95075.16
2023-04-02T16:12:19.743Z,95071.97
2023-04-02T16:14:48.326Z,95088.13
2023-04-02T16:17:32.728Z,95106.06
2023-04-02T16:20:24.202Z,95110.09
2023-04-02T16:23:01.179Z,95113.47
2023-04-02T16:25:39.128Z,95103.97
2023-04-02T16:28:23.985Z,95125.81
2023-04-02T16:31:08.185Z,95131.78
2023-04-02T16:33:51.078Z,95137.09
2023-04-02T16:36:39.780Z,95142.91
2023-04-02T16:39:26.659Z,95145.00
2023-04-02T16:42:21.947Z,95148.81
2023-04-02T16:45:03.065Z,95147.13
2023-04-02T16:48:00.685Z,95157.03
2023-04-02T16:50:39.400Z,95154.50
2023-04-02T16:53:11.786Z,95160.88
2023-04-02T16:56:18.130Z,95158.53
2023-04-02T16:59:09.349Z,95160.50
2023-04-02T17:01:45.013Z,95153.09
2023-04-02T17:04:49.836Z,95163.22
2023-04-02T17:07:19.167Z,95171.53
2023-04-02T17:09:57.602Z,95175.06
2023-04-02T17:12:38.693Z,95176.03
2023-04-02T17:15:28.407Z,95182.75
2023-04-02T17:18:01.800Z,95180.84
2023-04-02T17:20:33.203Z,95177.91
2023-04-02T17:23:02.762Z,95195.31
2023-04-02T17:25:37.350Z,95197.66
2023-04-02T17:28:12.852Z,95197.81
2023-04-02T17:30:47.774Z,95193.00
2023-04-02T17:33:17.483Z,95203.13
2023-04-02T17:36:09.424Z,95203.25
2023-04-02T17:39:02.623Z,95208.31
2023-04-02T17:41:29.157Z,95221.00
2023-04-02T17:44:37.337Z,95215.44
2023-04-02T17:47:20.786Z,95226.84
2023-04-02T17:49:47.290Z,95230.75
2023-04-02T17:52:19.705Z,95228.19
2023-04-02T17:55:05.416Z,95234.16
2023-04-02T17:57:44.196Z,95237.00
2023-04-02T18:00:11.033Z,95240.38
2023-04-02T18:02:49.784Z,95243.50
2023-04-02T18:05:28.324Z,95245.72
2023-04-02T18:07:57.929Z,95255.28
2023-04-02T18:10:36.639Z,95253.75
2023-04-02T18:13:12.042Z,95262.63
2023-04-02T18:15:41.624Z,95271.81
2023-04-02T18:18:26.333Z,95269.25
2023-04-02T18:21:25.687Z,95270.47
2023-04-02T18:24:20.600Z,95282.38
2023-04-02T18:26:59.430Z,95279.78
2023-04-02T18:29:29.003Z,95282.09
2023-04-02T18:32:17.101Z,95286.78
2023-04-02T18:35:08.075Z,95290.88
2023-04-02T18:37:51.400Z,95295.78
2023-04-02T18:40:46.853Z,95304.09
2023-04-02T18:43:34.975Z,95309.69
2023-04-02T18:46:05.838Z,95303.56
2023-04-02T18:48:42.869Z,95304.75
2023-04-02T18:51:21.341Z,95312.34
2023-04-02T18:53:54.339Z,95327.00
2023-04-02T18:56:22.402Z,95328.88
2023-04-02T18:58:53.258Z,95334.22
2023-04-02T19:01:31.173Z,95330.44
2023-04-02T19:04:12.973Z,95331.94
2023-04-02T19:06:43.876Z,95334.97
2023-04-02T19:09:16.748Z,95336.50
2023-04-02T19:11:43.351Z,95343.31
2023-04-02T19:14:18.871Z,95344.44
2023-04-02T19:16:48.474Z,95344.06
2023-04-02T19:19:20.898Z,95339.94
2023-04-02T19:22:12.117Z,95353.91
2023-04-02T19:25:03.413Z,95355.75
2023-04-02T19:27:29.856Z,95366.31
2023-04-02T19:30:02.582Z,95361.81
2023-04-02T19:32:49.438Z,95368.97
2023-04-02T19:36:08.491Z,95375.00
2023-04-02T19:39:03.132Z,95381.03
2023-04-02T19:41:43.965Z,95375.38
2023-04-02T19:44:13.382Z,95386.66
2023-04-02T19:46:40.827Z,95384.44
2023-04-02T19:49:32.751Z,95390.03
2023-04-02T19:51:59.409Z,95391.88
2023-04-02T19:54:26.229Z,95394.19
2023-04-02T19:56:52.872Z,95395.31
2023-04-02T19:59:19.463Z,95398.69
2023-04-02T20:01:47.167Z,95405.13
2023-04-02T20:04:14.273Z,95396.47
2023-04-02T20:06:41.532Z,95411.94
2023-04-02T20:09:08.823Z,95409.69
2023-04-02T20:11:37.018Z,95413.44
2023-04-02T20:14:04.484Z,95404.75
2023-04-02T20:16:31.255Z,95412.31
2023-04-02T20:18:57.955Z,95419.09
2023-04-02T20:21:24.536Z,95411.81
2023-04-02T20:23:55.061Z,95417.88
2023-04-02T20:26:22.639Z,95397.63
2023-04-02T20:28:49.562Z,95413.06
2023-04-02T20:31:18.530Z,95402.50
2023-04-02T20:33:45.608Z,95410.31
2023-04-02T20:36:14.825Z,95404.38
2023-04-02T20:38:41.667Z,95414.09
2023-04-02T20:41:09.411Z,95423.53
2023-04-02T20:43:37.551Z,95419.03
2023-04-02T20:46:06.024Z,95420.13
2023-04-02T20:48:35.706Z,95429.94
2023-04-02T20:51:04.227Z,95442.09
2023-04-02T20:53:32.684Z,95440.94
2023-04-02T20:56:10.203Z,95428.50
2023-04-02T20:58:37.843Z,95438.22
2023-04-02T21:01:13.109Z,95440.16
2023-04-02T21:03:40.083Z,95434.53
2023-04-02T21:06:13.059Z,95437.56
2023-04-02T21:08:39.799Z,95435.25
2023-04-02T21:11:07.238Z,95445.66
2023-04-02T21:13:36.383Z,95443.00
2023-04-02T21:16:05.375Z,95442.56
2023-04-02T21:18:32.303Z,95447.41
2023-04-02T21:21:04.964Z,95456.09
2023-04-02T21:23:32.390Z,95454.53
2023-04-02T21:26:06.199Z,95456.09
2023-04-02T21:28:34.039Z,95459.13
2023-04-02T21:31:12.432Z,95460.66
2023-04-02T21:33:44.492Z,95465.84
2023-04-02T21:36:14.508Z,95467.38
2023-04-02T21:38:46.305Z,95473.81
2023-04-02T21:41:19.716Z,95469.66
2023-04-02T21:43:48.327Z,95462.88
2023-04-02T21:46:21.238Z,95471.91
2023-04-02T21:48:49.318Z,95467.03
2023-04-02T21:51:22.096Z,95474.22
2023-04-02T21:53:49.563Z,95461.00
2023-04-02T21:56:18.578Z,95449.09
2023-04-02T21:58:47.007Z,95458.47
2023-04-02T22:01:26.119Z,95456.63
2023-04-02T22:03:55.733Z,95453.81
2023-04-02T22:06:24.144Z,95467.38
2023-04-02T22:08:56.848Z,95469.50
2023-04-02T22:11:26.606Z,95473.97
2023-04-02T22:13:53.602Z,95463.69
2023-04-02T22:16:22.704Z,95458.47
2023-04-02T22:18:50.804Z,95467.38
2023-04-02T22:21:18.311Z,95465.91
2023-04-02T22:23:45.520Z,95472.66
2023-04-02T22:26:13.517Z,95468.22
2023-04-02T22:28:40.487Z,95467.25
2023-04-02T22:31:16.130Z,95473.59
2023-04-02T22:33:44.483Z,95475.09
2023-04-02T22:36:12.288Z,95474.66
2023-04-02T22:38:39.086Z,95473.50
2023-04-02T22:41:11.105Z,95477.81
2023-04-02T22:43:38.599Z,95474.16
2023-04-02T22:46:07.277Z,95477.25
2023-04-02T22:48:34.545Z,95473.81
2023-04-02T22:51:01.471Z,95475.72
2023-04-02T22:53:29.234Z,95472.53
2023-04-02T22:55:55.828Z,95477.69
2023-04-02T22:58:22.687Z,95473.94
2023-04-02T23:00:49.378Z,95470.94
2023-04-02T23:03:16.265Z,95466.72
2023-04-02T23:05:43.025Z,95463.44
2023-04-02T23:08:09.825Z,95475.78
2023-04-02T23:10:36.994Z,95475.34
2023-04-02T23:13:03.835Z,95474.66
2023-04-02T23:15:30.566Z,95481.41
2023-04-02T23:17:57.198Z,95478.41
2023-04-02T23:20:23.856Z,95470.19
2023-04-02T23:22:50.450Z,95474.06
2023-04-02T23:25:17.111Z,95454.72
2023-04-02T23:27:43.681Z,95466.44
2023-04-02T23:30:10.496Z,95460.50
2023-04-02T23:32:37.093Z,95463.50
2023-04-02T23:35:03.844Z,95464.19
2023-04-02T23:37:30.418Z,95462.75
2023-04-02T23:39:57.118Z,95455.16
2023-04-02T23:42:23.657Z,95458.66
2023-04-02T23:44:50.301Z,95462.72
2023-04-02T23:47:17.147Z,95463.28
2023-04-02T23:49:47.864Z,95469.19
2023-04-02T23:52:15.479Z,95471.59
2023-04-02T23:54:42.089Z,95467.94
2023-04-02T23:57:08.690Z,95457.78
2023-04-02T23:59:35.410Z,95457.13
